createdAt,value
2023-05-21T09:29:27.535Z,9.30
2023-05-21T09:31:56.956Z,9.63
2023-05-21T09:34:26.167Z,9.57
2023-05-21T09:36:57.666Z,9.30
2023-05-21T09:39:29.503Z,11.65
2023-05-21T09:41:58.773Z,10.15
2023-05-21T09:44:29.095Z,9.73
2023-05-21T09:46:59.540Z,9.43
2023-05-21T09:49:28.053Z,10.85
2023-05-21T09:51:57.552Z,11.45
2023-05-21T09:54:25.892Z,10.27
2023-05-21T09:56:53.633Z,9.95
2023-05-21T09:59:21.981Z,9.65
2023-05-21T10:01:53.113Z,11.02
2023-05-21T10:04:20.923Z,10.25
2023-05-21T10:06:49.480Z,10.95
2023-05-21T10:09:19.997Z,11.57
2023-05-21T10:11:50.432Z,11.02
2023-05-21T10:14:21.002Z,9.35
2023-05-21T10:16:49.052Z,11.05
2023-05-21T10:19:18.565Z,11.25
2023-05-21T10:21:47.193Z,12.45
2023-05-21T10:24:15.134Z,11.50
2023-05-21T10:26:43.548Z,11.80
2023-05-21T10:29:11.994Z,10.68
2023-05-21T10:31:40.520Z,12.57
2023-05-21T10:34:09.164Z,11.90
2023-05-21T10:36:39.243Z,12.60
2023-05-21T10:39:09.508Z,11.48
2023-05-21T10:41:46.630Z,11.68
2023-05-21T10:44:25.446Z,12.95
2023-05-21T10:47:16.328Z,11.88
2023-05-21T10:49:58.438Z,11.50
2023-05-21T10:52:38.477Z,11.85
2023-05-21T10:55:18.805Z,14.98
2023-05-21T10:58:11.877Z,12.57
2023-05-21T11:00:39.984Z,11.32
2023-05-21T11:03:09.112Z,12.45
2023-05-21T11:05:41.315Z,11.90
2023-05-21T11:08:23.416Z,12.43
2023-05-21T11:10:57.862Z,11.88
2023-05-21T11:13:26.882Z,11.73
2023-05-21T11:16:07.135Z,12.27
2023-05-21T11:19:02.886Z,11.73
2023-05-21T11:21:32.282Z,12.70
2023-05-21T11:24:10.825Z,13.23
2023-05-21T11:27:02.277Z,12.40
2023-05-21T11:29:44.181Z,12.75
2023-05-21T11:34:41.779Z,12.20
2023-05-21T11:37:34.707Z,11.75
2023-05-21T11:40:20.908Z,12.45
2023-05-21T11:42:53.153Z,12.45
2023-05-21T11:45:22.060Z,12.18
2023-05-21T11:47:51.379Z,11.85
2023-05-21T11:50:19.596Z,11.98
2023-05-21T11:52:48.056Z,11.80
2023-05-21T11:55:16.562Z,12.68
2023-05-21T11:57:47.856Z,10.82
2023-05-21T12:00:17.117Z,11.90
2023-05-21T12:02:49.186Z,11.23
2023-05-21T12:05:17.306Z,13.07
2023-05-21T12:07:49.839Z,12.02
2023-05-21T12:10:21.315Z,11.80
2023-05-21T12:12:56.503Z,12.07
2023-05-21T12:15:25.749Z,12.52
2023-05-21T12:17:53.598Z,12.32
2023-05-21T12:20:21.526Z,12.55
2023-05-21T12:22:50.526Z,11.38
2023-05-21T12:25:20.353Z,10.98
2023-05-21T12:27:50.184Z,11.13
2023-05-21T12:30:17.974Z,12.75
2023-05-21T12:32:45.654Z,11.15
2023-05-21T12:35:22.333Z,11.60
2023-05-21T12:37:51.444Z,17.95
2023-05-21T12:40:19.602Z,12.27
2023-05-21T12:42:47.439Z,11.30
2023-05-21T12:45:18.523Z,11.93
2023-05-21T12:47:50.114Z,13.15
2023-05-21T12:50:21.955Z,11.07
2023-05-21T12:52:49.702Z,11.35
2023-05-21T12:55:18.182Z,10.93
2023-05-21T12:57:46.475Z,10.38
2023-05-21T13:00:14.378Z,11.05
2023-05-21T13:02:45.730Z,13.20
2023-05-21T13:05:17.697Z,12.27
2023-05-21T13:07:47.153Z,11.57
2023-05-21T13:10:16.386Z,10.93
2023-05-21T13:12:44.812Z,12.10
2023-05-21T13:15:13.045Z,10.73
2023-05-21T13:17:40.866Z,11.00
2023-05-21T13:20:12.121Z,12.70
2023-05-21T13:22:42.292Z,11.70
2023-05-21T13:25:11.020Z,11.45
2023-05-21T13:27:38.993Z,12.43
2023-05-21T13:30:08.046Z,15.20
2023-05-21T13:32:36.008Z,11.65
2023-05-21T13:35:05.014Z,11.00
2023-05-21T13:37:36.625Z,13.25
2023-05-21T13:40:06.258Z,12.77
2023-05-21T13:42:33.928Z,12.60
2023-05-21T13:45:02.009Z,12.80
2023-05-21T13:47:30.162Z,11.00
2023-05-21T13:49:57.903Z,12.55
2023-05-21T13:52:25.539Z,11.95
2023-05-21T13:54:54.554Z,11.70
2023-05-21T13:57:22.337Z,12.18
2023-05-21T13:59:50.570Z,12.40
2023-05-21T14:02:18.302Z,12.07
2023-05-21T14:04:46.024Z,11.65
2023-05-21T14:07:13.813Z,13.13
2023-05-21T14:09:42.237Z,11.45
2023-05-21T14:12:11.779Z,12.30
2023-05-21T14:14:39.396Z,12.25
2023-05-21T14:17:07.407Z,11.68
2023-05-21T14:19:35.103Z,11.63
2023-05-21T14:22:02.962Z,13.07
2023-05-21T14:24:31.214Z,12.00
2023-05-21T14:26:58.861Z,10.68
2023-05-21T14:29:27.862Z,14.15
2023-05-21T14:31:55.527Z,11.40
2023-05-21T14:34:23.177Z,11.75
2023-05-21T14:36:50.811Z,11.52
2023-05-21T14:39:18.604Z,12.73
2023-05-21T14:41:46.267Z,11.25
2023-05-21T14:44:13.889Z,12.40
2023-05-21T14:46:42.947Z,12.30
2023-05-21T14:49:11.814Z,13.48
2023-05-21T14:51:39.424Z,14.60
2023-05-21T14:54:07.171Z,10.77
2023-05-21T14:56:34.832Z,11.65
2023-05-21T14:59:02.436Z,11.23
2023-05-21T15:01:30.147Z,12.05
2023-05-21T15:03:59.387Z,11.13
2023-05-21T15:06:27.918Z,10.45
2023-05-21T15:08:55.631Z,11.98
2023-05-21T15:11:23.291Z,11.25
2023-05-21T15:13:50.942Z,10.45
2023-05-21T15:16:19.728Z,10.23
2023-05-21T15:18:47.684Z,11.10
2023-05-21T15:21:16.832Z,10.57
2023-05-21T15:23:45.208Z,11.55
2023-05-21T15:26:12.844Z,10.65
2023-05-21T15:28:40.641Z,11.02
2023-05-21T15:31:08.297Z,11.75
2023-05-21T15:33:37.202Z,12.30
2023-05-21T15:36:05.196Z,11.82
2023-05-21T15:38:34.312Z,10.60
2023-05-21T15:41:01.952Z,11.57
2023-05-21T15:43:29.820Z,10.27
2023-05-21T15:45:57.481Z,11.85
2023-05-21T15:48:25.168Z,11.90
2023-05-21T15:50:52.801Z,11.38
2023-05-21T15:53:20.500Z,12.55
2023-05-21T15:55:49.709Z,11.88
2023-05-21T15:58:17.461Z,11.95
2023-05-21T16:00:45.149Z,11.50
2023-05-21T16:03:13.141Z,11.73
2023-05-21T16:05:40.829Z,11.57
2023-05-21T16:08:10.638Z,12.07
2023-05-21T16:10:39.801Z,12.18
2023-05-21T16:13:08.767Z,12.88
2023-05-21T16:15:37.025Z,12.38
2023-05-21T16:18:05.162Z,11.93
2023-05-21T16:20:33.307Z,12.93
2023-05-21T16:23:01.006Z,12.60
2023-05-21T16:25:28.680Z,13.27
2023-05-21T16:27:56.344Z,14.23
2023-05-21T16:30:25.432Z,13.10
2023-05-21T16:32:53.275Z,12.75
2023-05-21T16:35:21.075Z,12.35
2023-05-21T16:37:48.914Z,14.13
2023-05-21T16:40:16.587Z,12.65
2023-05-21T16:42:44.266Z,12.80
2023-05-21T16:45:13.263Z,13.50
2023-05-21T16:47:42.303Z,13.27
2023-05-21T16:50:10.902Z,14.32
2023-05-21T16:52:38.623Z,14.55
2023-05-21T16:55:07.136Z,14.63
2023-05-21T16:57:34.862Z,17.83
2023-05-21T17:00:03.623Z,14.20
2023-05-21T17:02:31.431Z,13.70
2023-05-21T17:05:00.566Z,17.10
2023-05-21T17:07:28.229Z,14.75
2023-05-21T17:09:55.967Z,14.13
2023-05-21T17:12:23.598Z,14.32
2023-05-21T17:14:51.968Z,14.27
2023-05-21T17:17:20.062Z,14.45
2023-05-21T17:19:47.741Z,14.63
2023-05-21T17:22:16.782Z,14.30
2023-05-21T17:24:45.847Z,14.60
2023-05-21T17:27:13.470Z,13.43
2023-05-21T17:29:41.366Z,14.50
2023-05-21T17:32:09.078Z,14.55
2023-05-21T17:34:37.149Z,14.32
2023-05-21T17:37:04.878Z,13.73
2023-05-21T17:39:33.874Z,14.43
2023-05-21T17:42:01.980Z,14.38
2023-05-21T17:44:29.599Z,14.52
2023-05-21T17:46:57.470Z,14.05
2023-05-21T17:49:25.397Z,15.88
2023-05-21T17:51:53.293Z,16.30
2023-05-21T17:54:22.250Z,15.80
2023-05-21T17:56:51.328Z,14.65
2023-05-21T17:59:19.079Z,13.95
2023-05-21T18:01:47.311Z,15.10
2023-05-21T18:04:14.952Z,14.32
2023-05-21T18:06:44.075Z,14.25
2023-05-21T18:09:14.162Z,15.57
2023-05-21T18:11:43.675Z,14.75
2023-05-21T18:14:12.655Z,14.38
2023-05-21T18:16:41.427Z,14.48
2023-05-21T18:19:09.191Z,13.90
2023-05-21T18:21:37.099Z,16.10
2023-05-21T18:24:06.112Z,17.65
2023-05-21T18:26:33.836Z,19.88
2023-05-21T18:29:01.474Z,20.55
2023-05-21T18:31:30.546Z,16.88
2023-05-21T18:33:58.444Z,15.07
2023-05-21T18:36:26.532Z,15.13
2023-05-21T18:38:54.226Z,14.75
2023-05-21T18:41:22.552Z,22.90
2023-05-21T18:43:50.157Z,21.88
2023-05-21T18:46:18.217Z,16.70
2023-05-21T18:48:48.509Z,15.90
2023-05-21T18:51:16.179Z,15.77
2023-05-21T18:53:43.820Z,15.20
2023-05-21T18:56:11.507Z,15.00
2023-05-21T18:58:39.101Z,15.40
2023-05-21T19:01:07.576Z,14.40
2023-05-21T19:03:35.419Z,14.68
2023-05-21T19:06:04.648Z,15.75
2023-05-21T19:08:32.264Z,14.52
2023-05-21T19:11:00.753Z,14.25
2023-05-21T19:13:28.365Z,13.52
2023-05-21T19:15:57.337Z,15.32
2023-05-21T19:18:30.039Z,14.73
2023-05-21T19:20:57.909Z,14.85
2023-05-21T19:23:26.944Z,14.63
2023-05-21T19:25:54.588Z,14.95
2023-05-21T19:28:22.248Z,15.10
2023-05-21T19:30:49.989Z,14.95
2023-05-21T19:33:18.445Z,16.05
2023-05-21T19:35:46.119Z,14.80
2023-05-21T19:38:13.879Z,15.63
2023-05-21T19:40:43.759Z,16.15
2023-05-21T19:43:12.822Z,16.23
2023-05-21T19:45:40.642Z,14.90
2023-05-21T19:48:08.459Z,15.98
2023-05-21T19:50:36.324Z,13.43
2023-05-21T19:53:04.214Z,11.57
2023-05-21T19:55:35.169Z,10.85
2023-05-21T19:58:04.454Z,10.17
2023-05-21T20:00:32.064Z,10.18
2023-05-21T20:02:59.763Z,10.57
2023-05-21T20:05:27.552Z,10.63
2023-05-21T20:07:55.848Z,8.80
2023-05-21T20:10:23.661Z,8.65
2023-05-21T20:12:51.350Z,7.72
2023-05-21T20:15:20.689Z,7.20
2023-05-21T20:17:50.290Z,7.05
2023-05-21T20:20:18.714Z,7.45
2023-05-21T20:22:46.717Z,7.70
2023-05-21T20:25:14.367Z,7.60
2023-05-21T20:27:42.185Z,6.60
2023-05-21T20:30:10.363Z,6.50
2023-05-21T20:32:39.528Z,7.63
2023-05-21T20:35:09.794Z,7.47
2023-05-21T20:37:38.309Z,6.88
2023-05-21T20:40:09.075Z,6.55
2023-05-21T20:42:36.855Z,5.95
2023-05-21T20:45:04.926Z,6.72
2023-05-21T20:47:33.656Z,6.35
2023-05-21T20:50:03.681Z,5.53
2023-05-21T20:52:31.695Z,6.00
2023-05-21T20:55:00.002Z,5.72
2023-05-21T20:57:28.155Z,7.78
2023-05-21T20:59:56.111Z,7.22
2023-05-21T21:02:24.377Z,5.32
2023-05-21T21:04:53.726Z,5.85
2023-05-21T21:07:23.127Z,6.60
2023-05-21T21:09:50.733Z,5.10
2023-05-21T21:14:49.194Z,5.47
2023-05-21T21:17:17.458Z,5.70
2023-05-21T21:19:45.087Z,5.78
2023-05-21T21:22:12.800Z,5.65
2023-05-21T21:24:41.750Z,6.15
2023-05-21T21:27:09.621Z,6.47
2023-05-21T21:29:37.597Z,6.47
2023-05-21T21:32:06.040Z,11.70
2023-05-21T21:34:33.730Z,9.20
2023-05-21T21:37:01.823Z,6.38
2023-05-21T21:39:29.476Z,6.53
2023-05-21T21:41:58.592Z,8.55
2023-05-21T21:44:27.059Z,7.75
2023-05-21T21:46:54.779Z,7.72
2023-05-21T21:49:22.389Z,7.90
2023-05-21T21:51:51.141Z,8.05
2023-05-21T21:54:18.763Z,7.47
2023-05-21T21:56:46.344Z,8.95
2023-05-21T21:59:15.487Z,8.70
2023-05-21T22:01:43.357Z,7.72
2023-05-21T22:04:11.807Z,9.65
2023-05-21T22:06:39.894Z,9.90
2023-05-21T22:09:08.860Z,8.07
2023-05-21T22:11:36.529Z,9.85
2023-05-21T22:14:05.217Z,8.82
2023-05-21T22:16:34.333Z,10.30
2023-05-21T22:19:02.784Z,8.82
2023-05-21T22:21:32.817Z,9.15
2023-05-21T22:24:00.769Z,11.30
2023-05-21T22:26:28.382Z,10.65
2023-05-21T22:28:55.963Z,10.27
2023-05-21T22:31:23.622Z,10.40
2023-05-21T22:33:52.700Z,10.60
2023-05-21T22:36:21.070Z,10.93
2023-05-21T22:38:48.670Z,10.40
2023-05-21T22:41:16.312Z,9.75
2023-05-21T22:43:43.936Z,10.77
2023-05-21T22:46:11.755Z,10.95
2023-05-21T22:48:41.702Z,10.60
2023-05-21T22:51:11.251Z,10.93
2023-05-21T22:53:38.911Z,11.57
2023-05-21T22:56:06.918Z,11.68
2023-05-21T22:58:34.723Z,11.00
2023-05-21T23:01:02.346Z,11.75
2023-05-21T23:03:30.401Z,12.05
2023-05-21T23:05:58.067Z,11.57
2023-05-21T23:08:27.012Z,11.93
2023-05-21T23:10:54.669Z,12.70
2023-05-21T23:13:22.269Z,11.68
2023-05-21T23:15:50.586Z,11.02
2023-05-21T23:18:18.224Z,11.20
2023-05-21T23:20:46.487Z,11.70
2023-05-21T23:23:14.140Z,11.60
2023-05-21T23:25:43.087Z,12.60
2023-05-21T23:28:11.608Z,12.27
2023-05-21T23:30:39.599Z,12.10
2023-05-21T23:33:08.116Z,11.23
2023-05-21T23:35:35.779Z,11.20
2023-05-21T23:38:03.537Z,11.73
2023-05-21T23:40:31.138Z,12.60
2023-05-21T23:43:00.494Z,12.50
2023-05-21T23:45:28.130Z,11.10
2023-05-21T23:47:55.843Z,11.60
2023-05-21T23:50:25.841Z,12.07
2023-05-21T23:52:53.577Z,12.85
2023-05-21T23:55:21.360Z,12.35
2023-05-21T23:57:48.978Z,12.73
